createdAt,value
2017-05-11T00:00:03.306Z,9.57
2017-05-11T00:00:43.838Z,9.51
2017-05-11T00:01:24.368Z,9.51
2017-05-11T00:02:04.901Z,9.53
2017-05-11T00:02:45.465Z,9.5
2017-05-11T00:03:25.969Z,9.53
2017-05-11T00:04:06.499Z,9.48
2017-05-11T00:04:47.032Z,9.47
2017-05-11T00:05:27.563Z,9.38
2017-05-11T00:06:08.096Z,9.46
2017-05-11T00:06:48.632Z,9.46
2017-05-11T00:07:29.169Z,9.4
2017-05-11T00:08:09.700Z,9.39
2017-05-11T00:08:50.225Z,9.38
2017-05-11T00:09:30.759Z,9.31
2017-05-11T00:10:11.296Z,9.31
2017-05-11T00:10:51.836Z,9.29
2017-05-11T00:11:32.369Z,9.35
2017-05-11T00:12:12.905Z,9.26
2017-05-11T00:12:53.444Z,9.23
2017-05-11T00:13:33.981Z,9.28
2017-05-11T00:14:14.510Z,9.23
2017-05-11T00:14:55.048Z,9.2
2017-05-11T00:15:35.592Z,9.23
2017-05-11T00:16:16.125Z,9.2
2017-05-11T00:16:56.687Z,9.18
2017-05-11T00:17:37.195Z,9.23
2017-05-11T00:18:17.726Z,9.23
2017-05-11T00:18:58.254Z,9.26
2017-05-11T00:19:38.805Z,9.29
2017-05-11T00:20:19.341Z,9.28
2017-05-11T00:20:59.875Z,9.26
2017-05-11T00:21:40.414Z,9.23
2017-05-11T00:22:20.947Z,9.21
2017-05-11T00:23:01.478Z,9.2
2017-05-11T00:23:42.007Z,9.23
2017-05-11T00:24:22.548Z,9.2
2017-05-11T00:25:03.082Z,9.23
2017-05-11T00:25:43.625Z,9.23
2017-05-11T00:26:24.152Z,9.18
2017-05-11T00:27:04.682Z,9.2
2017-05-11T00:27:45.211Z,9.23
2017-05-11T00:28:25.750Z,9.15
2017-05-11T00:29:06.270Z,9.15
2017-05-11T00:29:46.802Z,9.13
2017-05-11T00:30:27.325Z,9.04
2017-05-11T00:31:07.858Z,9.1
2017-05-11T00:31:48.400Z,9.01
2017-05-11T00:32:28.959Z,9.04
2017-05-11T00:33:09.464Z,9.08
2017-05-11T00:33:49.996Z,9.05
2017-05-11T00:34:30.577Z,9.05
2017-05-11T00:35:11.055Z,9.05
2017-05-11T00:35:51.603Z,9.01
2017-05-11T00:36:32.138Z,8.91
2017-05-11T00:37:12.673Z,8.87
2017-05-11T00:37:53.200Z,8.94
2017-05-11T00:38:33.728Z,8.95
2017-05-11T00:39:14.270Z,8.87
2017-05-11T00:39:54.804Z,8.91
2017-05-11T00:40:35.335Z,8.89
2017-05-11T00:41:15.870Z,8.91
2017-05-11T00:41:56.398Z,8.89
2017-05-11T00:42:36.931Z,8.92
2017-05-11T00:43:17.468Z,8.92
2017-05-11T00:43:58.013Z,8.92
2017-05-11T00:44:38.546Z,8.96
2017-05-11T00:45:19.081Z,8.87
2017-05-11T00:45:59.613Z,8.87
2017-05-11T00:46:40.143Z,8.89
2017-05-11T00:47:20.676Z,8.95
2017-05-11T00:48:01.210Z,8.92
2017-05-11T00:48:41.732Z,8.87
2017-05-11T00:49:22.275Z,8.94
2017-05-11T00:50:02.809Z,9.08
2017-05-11T00:50:43.339Z,9.01
2017-05-11T00:51:23.879Z,9.11
2017-05-11T00:52:04.414Z,9.08
2017-05-11T00:52:44.946Z,9.08
2017-05-11T00:53:25.480Z,9.1
2017-05-11T00:54:06.017Z,9.05
2017-05-11T00:54:46.550Z,9.11
2017-05-11T00:55:27.081Z,9.15
2017-05-11T00:56:07.647Z,9.11
2017-05-11T00:56:48.148Z,9.24
2017-05-11T00:57:28.677Z,9.15
2017-05-11T00:58:09.247Z,9.21
2017-05-11T00:58:49.779Z,9.21
2017-05-11T00:59:30.312Z,9.21
2017-05-11T01:00:10.855Z,9.21
2017-05-11T01:00:51.388Z,9.2
2017-05-11T01:01:31.921Z,9.23
2017-05-11T01:02:12.455Z,9.24
2017-05-11T01:02:52.989Z,9.21
2017-05-11T01:03:33.518Z,9.21
2017-05-11T01:04:14.055Z,9.33
2017-05-11T01:04:54.588Z,9.28
2017-05-11T01:05:35.126Z,9.36
2017-05-11T01:06:15.656Z,9.26
2017-05-11T01:06:56.180Z,9.29
2017-05-11T01:07:36.712Z,9.35
2017-05-11T01:08:17.243Z,9.28
2017-05-11T01:08:57.777Z,9.32
2017-05-11T01:09:38.310Z,9.32
2017-05-11T01:10:18.840Z,9.4
2017-05-11T01:10:59.368Z,9.32
2017-05-11T01:11:39.901Z,9.35
2017-05-11T01:12:20.440Z,9.32
2017-05-11T01:13:00.967Z,9.38
2017-05-11T01:13:41.502Z,9.35
2017-05-11T01:14:22.040Z,9.31
2017-05-11T01:15:02.567Z,9.31
2017-05-11T01:15:43.104Z,9.31
2017-05-11T01:16:23.643Z,9.39
2017-05-11T01:17:04.182Z,9.31
2017-05-11T01:17:44.716Z,9.29
2017-05-11T01:18:25.249Z,9.35
2017-05-11T01:19:05.780Z,9.23
2017-05-11T01:19:46.320Z,9.23
2017-05-11T01:20:26.859Z,9.21
2017-05-11T01:21:07.388Z,9.23
2017-05-11T01:21:47.926Z,9.21
2017-05-11T01:22:28.460Z,9.24
2017-05-11T01:23:09.000Z,9.23
2017-05-11T01:23:49.537Z,9.24
2017-05-11T01:24:30.067Z,9.21
2017-05-11T01:25:10.603Z,9.23
2017-05-11T01:25:51.139Z,9.2
2017-05-11T01:26:31.674Z,9.23
2017-05-11T01:27:12.219Z,9.24
2017-05-11T01:27:52.760Z,9.24
2017-05-11T01:28:33.287Z,9.23
2017-05-11T01:29:13.826Z,9.1
2017-05-11T01:29:54.360Z,8.99
2017-05-11T01:30:34.893Z,9.14
2017-05-11T01:31:15.429Z,9.13
2017-05-11T01:31:55.963Z,9.13
2017-05-11T01:32:36.521Z,9.13
2017-05-11T01:33:17.046Z,9.14
2017-05-11T01:33:57.588Z,9.14
2017-05-11T01:34:38.122Z,9.1
2017-05-11T01:35:18.660Z,9.13
2017-05-11T01:35:59.197Z,8.99
2017-05-11T01:36:39.731Z,9.05
2017-05-11T01:37:20.268Z,9.08
2017-05-11T01:38:00.794Z,8.99
2017-05-11T01:38:41.343Z,9.02
2017-05-11T01:39:21.866Z,9.08
2017-05-11T01:40:02.402Z,9.01
2017-05-11T01:40:42.937Z,8.96
2017-05-11T01:41:23.473Z,9.04
2017-05-11T01:42:04.003Z,9.01
2017-05-11T01:42:44.528Z,9.02
2017-05-11T01:43:25.066Z,9.08
2017-05-11T01:44:05.605Z,9.1
2017-05-11T01:44:46.139Z,9.1
2017-05-11T01:45:26.663Z,9.02
2017-05-11T01:46:07.199Z,9.04
2017-05-11T01:46:47.727Z,9.08
2017-05-11T01:47:28.266Z,9.1
2017-05-11T01:48:08.806Z,9.18
2017-05-11T01:48:49.345Z,9.04
2017-05-11T01:49:29.887Z,9.15
2017-05-11T01:50:10.416Z,9.15
2017-05-11T01:50:50.945Z,9.13
2017-05-11T01:51:31.483Z,9.18
2017-05-11T01:52:12.019Z,9.13
2017-05-11T01:52:52.563Z,9.14
2017-05-11T01:53:33.096Z,9.17
2017-05-11T01:54:13.630Z,9.13
2017-05-11T01:54:54.159Z,9.13
2017-05-11T01:55:34.697Z,9.1
2017-05-11T01:56:15.236Z,9.15
2017-05-11T01:56:55.774Z,9.13
2017-05-11T01:57:36.321Z,9.1
2017-05-11T01:58:16.851Z,9.14
2017-05-11T01:58:57.381Z,9.13
2017-05-11T01:59:37.914Z,9.02
2017-05-11T02:00:18.452Z,9.02
2017-05-11T02:00:59.011Z,9.05
2017-05-11T02:01:39.592Z,9.02
2017-05-11T02:02:20.126Z,9.04
2017-05-11T02:03:00.648Z,9.11
2017-05-11T02:03:41.213Z,9.11
2017-05-11T02:04:21.723Z,9.11
2017-05-11T02:05:02.259Z,9.08
2017-05-11T02:05:42.799Z,8.96
2017-05-11T02:06:23.332Z,8.96
2017-05-11T02:07:03.859Z,9.05
2017-05-11T02:07:44.423Z,9.05
2017-05-11T02:08:24.926Z,8.91
2017-05-11T02:09:05.460Z,8.96
2017-05-11T02:09:45.977Z,8.89
2017-05-11T02:10:26.510Z,8.91
2017-05-11T02:11:07.050Z,8.96
2017-05-11T02:11:47.589Z,8.94
2017-05-11T02:12:28.128Z,8.92
2017-05-11T02:13:08.684Z,8.87
2017-05-11T02:13:49.215Z,8.89
2017-05-11T02:14:29.756Z,8.76
2017-05-11T02:15:10.291Z,8.74
2017-05-11T02:15:50.822Z,8.8
2017-05-11T02:16:31.355Z,8.84
2017-05-11T02:17:11.890Z,8.8
2017-05-11T02:17:52.430Z,8.73
2017-05-11T02:18:32.972Z,8.74
2017-05-11T02:19:13.511Z,8.71
2017-05-11T02:19:54.042Z,8.7
2017-05-11T02:20:34.570Z,8.73
2017-05-11T02:21:15.105Z,8.7
2017-05-11T02:21:55.643Z,8.7
2017-05-11T02:22:36.180Z,8.8
2017-05-11T02:23:16.715Z,8.79
2017-05-11T02:23:57.250Z,8.62
2017-05-11T02:24:37.782Z,8.7
2017-05-11T02:25:18.313Z,8.58
2017-05-11T02:25:58.844Z,8.65
2017-05-11T02:26:39.392Z,8.55
2017-05-11T02:27:19.916Z,8.62
2017-05-11T02:28:00.450Z,8.68
2017-05-11T02:28:40.998Z,8.58
2017-05-11T02:29:21.529Z,8.68
2017-05-11T02:30:02.055Z,8.58
2017-05-11T02:30:42.598Z,8.63
2017-05-11T02:31:23.122Z,8.62
2017-05-11T02:32:03.661Z,8.62
2017-05-11T02:32:44.190Z,8.61
2017-05-11T02:33:24.715Z,8.61
2017-05-11T02:34:05.249Z,8.61
2017-05-11T02:34:45.783Z,8.66
2017-05-11T02:35:26.317Z,8.63
2017-05-11T02:36:06.841Z,8.68
2017-05-11T02:36:47.372Z,8.66
2017-05-11T02:37:27.910Z,8.73
2017-05-11T02:38:08.445Z,8.62
2017-05-11T02:38:48.983Z,8.58
2017-05-11T02:39:29.516Z,8.62
2017-05-11T02:40:10.042Z,8.56
2017-05-11T02:40:50.573Z,8.66
2017-05-11T02:41:31.109Z,8.68
2017-05-11T02:42:11.652Z,8.59
2017-05-11T02:42:52.187Z,8.59
2017-05-11T02:43:32.721Z,8.56
2017-05-11T02:44:13.254Z,8.59
2017-05-11T02:44:53.787Z,8.59
2017-05-11T02:45:34.323Z,8.53
2017-05-11T02:46:14.856Z,8.59
2017-05-11T02:46:55.392Z,8.62
2017-05-11T02:47:35.937Z,8.48
2017-05-11T02:48:16.464Z,8.68
2017-05-11T02:48:56.998Z,8.58
2017-05-11T02:49:37.534Z,8.55
2017-05-11T02:50:18.062Z,8.66
2017-05-11T02:50:58.594Z,8.56
2017-05-11T02:51:39.136Z,8.58
2017-05-11T02:52:19.668Z,8.61
2017-05-11T02:53:00.200Z,8.59
2017-05-11T02:53:40.730Z,8.63
2017-05-11T02:54:21.258Z,8.59
2017-05-11T02:55:01.809Z,8.61
2017-05-11T02:55:42.349Z,8.66
2017-05-11T02:56:22.897Z,8.55
2017-05-11T02:57:03.437Z,8.58
2017-05-11T02:57:43.975Z,8.5
2017-05-11T02:58:24.513Z,8.7
2017-05-11T02:59:05.044Z,8.65
2017-05-11T02:59:45.576Z,8.62
2017-05-11T03:00:26.112Z,8.59
2017-05-11T03:01:06.644Z,8.7
2017-05-11T03:01:47.182Z,8.71
2017-05-11T03:02:27.708Z,8.66
2017-05-11T03:03:08.246Z,8.65
2017-05-11T03:03:48.771Z,8.73
2017-05-11T03:04:29.302Z,8.59
2017-05-11T03:05:09.837Z,8.63
2017-05-11T03:05:50.372Z,8.59
2017-05-11T03:06:30.900Z,8.66
2017-05-11T03:07:11.445Z,8.58
2017-05-11T03:07:51.977Z,8.58
2017-05-11T03:08:32.520Z,8.63
2017-05-11T03:09:13.055Z,8.59
2017-05-11T03:09:53.582Z,8.7
2017-05-11T03:10:34.109Z,8.62
2017-05-11T03:11:14.634Z,8.59
2017-05-11T03:11:55.171Z,8.56
2017-05-11T03:12:35.697Z,8.65
2017-05-11T03:13:16.236Z,8.52
2017-05-11T03:13:56.775Z,8.59
2017-05-11T03:14:37.307Z,8.58
2017-05-11T03:15:17.837Z,8.58
2017-05-11T03:15:58.375Z,8.58
2017-05-11T03:16:38.914Z,8.55
2017-05-11T03:17:19.454Z,8.53
2017-05-11T03:17:59.992Z,8.56
2017-05-11T03:18:40.527Z,8.56
2017-05-11T03:19:21.064Z,8.62
2017-05-11T03:20:01.599Z,8.58
2017-05-11T03:20:42.135Z,8.59
2017-05-11T03:21:22.679Z,8.52
2017-05-11T03:22:03.219Z,8.58
2017-05-11T03:22:43.749Z,8.48
2017-05-11T03:23:24.281Z,8.52
2017-05-11T03:24:04.819Z,8.5
2017-05-11T03:24:45.378Z,8.48
2017-05-11T03:25:25.918Z,8.45
2017-05-11T03:26:06.447Z,8.41
2017-05-11T03:26:46.981Z,8.48
2017-05-11T03:27:27.516Z,8.47
2017-05-11T03:28:08.053Z,8.47
2017-05-11T03:28:48.582Z,8.41
2017-05-11T03:29:29.125Z,8.44
2017-05-11T03:30:09.658Z,8.52
2017-05-11T03:30:50.193Z,8.44
2017-05-11T03:31:30.728Z,8.4
2017-05-11T03:32:11.259Z,8.43
2017-05-11T03:32:51.794Z,8.48
2017-05-11T03:33:32.332Z,8.43
2017-05-11T03:34:12.863Z,8.4
2017-05-11T03:34:53.389Z,8.5
2017-05-11T03:35:33.929Z,8.4
2017-05-11T03:36:14.471Z,8.36
2017-05-11T03:36:55.012Z,8.34
2017-05-11T03:37:35.548Z,8.37
2017-05-11T03:38:16.081Z,8.37
2017-05-11T03:38:56.618Z,8.36
2017-05-11T03:39:37.149Z,8.33
2017-05-11T03:40:17.686Z,8.36
2017-05-11T03:40:58.219Z,8.3
2017-05-11T03:41:38.756Z,8.37
2017-05-11T03:42:19.298Z,8.28
2017-05-11T03:42:59.829Z,8.34
2017-05-11T03:43:40.361Z,8.38
2017-05-11T03:44:20.896Z,8.28
2017-05-11T03:45:01.432Z,8.28
2017-05-11T03:45:41.957Z,8.29
2017-05-11T03:46:22.511Z,8.25
2017-05-11T03:47:03.050Z,8.3
2017-05-11T03:47:43.581Z,8.28
2017-05-11T03:48:24.115Z,8.28
2017-05-11T03:49:04.653Z,8.34
2017-05-11T03:49:45.185Z,8.41
2017-05-11T03:50:25.763Z,8.28
2017-05-11T03:51:06.301Z,8.25
2017-05-11T03:51:46.834Z,8.33
2017-05-11T03:52:27.375Z,8.37
2017-05-11T03:53:07.903Z,8.41
2017-05-11T03:53:48.439Z,8.33
2017-05-11T03:54:28.969Z,8.4
2017-05-11T03:55:09.505Z,8.26
2017-05-11T03:55:50.042Z,8.3
2017-05-11T03:56:30.575Z,8.33
2017-05-11T03:57:11.109Z,8.33
2017-05-11T03:57:51.642Z,8.26
2017-05-11T03:58:32.181Z,8.33
2017-05-11T03:59:12.715Z,8.34
2017-05-11T03:59:53.286Z,8.29
2017-05-11T04:00:33.808Z,8.26
2017-05-11T04:01:14.341Z,8.34
2017-05-11T04:01:54.876Z,8.25
2017-05-11T04:02:35.404Z,8.26
2017-05-11T04:03:15.964Z,8.3
2017-05-11T04:03:56.490Z,8.26
2017-05-11T04:04:37.036Z,8.29
2017-05-11T04:05:17.566Z,8.25
2017-05-11T04:05:58.094Z,8.26
2017-05-11T04:06:38.637Z,8.22
2017-05-11T04:07:19.168Z,8.28
2017-05-11T04:07:59.705Z,8.23
2017-05-11T04:08:40.240Z,8.2
2017-05-11T04:09:20.768Z,8.29
2017-05-11T04:10:01.306Z,8.3
2017-05-11T04:10:41.856Z,8.33
2017-05-11T04:11:22.379Z,8.25
2017-05-11T04:12:02.917Z,8.3
2017-05-11T04:12:43.448Z,8.33
2017-05-11T04:13:23.980Z,8.41
2017-05-11T04:14:04.514Z,8.41
2017-05-11T04:14:45.052Z,8.38
2017-05-11T04:15:25.595Z,8.45
2017-05-11T04:16:06.115Z,8.43
2017-05-11T04:16:46.666Z,8.41
2017-05-11T04:17:27.196Z,8.44
2017-05-11T04:18:07.736Z,8.48
2017-05-11T04:18:48.276Z,8.48
2017-05-11T04:19:28.809Z,8.55
2017-05-11T04:20:09.345Z,8.55
2017-05-11T04:20:49.904Z,8.55
2017-05-11T04:21:30.454Z,8.65
2017-05-11T04:22:11.037Z,8.68
2017-05-11T04:22:51.522Z,8.74
2017-05-11T04:23:32.057Z,8.68
2017-05-11T04:24:12.591Z,8.74
2017-05-11T04:24:53.125Z,8.8
2017-05-11T04:25:33.635Z,8.86
2017-05-11T04:26:14.143Z,8.79
2017-05-11T04:26:54.725Z,8.81
2017-05-11T04:27:35.262Z,8.83
2017-05-11T04:28:15.823Z,8.89
2017-05-11T04:28:56.345Z,8.95
2017-05-11T04:29:36.885Z,8.94
2017-05-11T04:30:17.427Z,8.94
2017-05-11T04:30:57.964Z,9.02
2017-05-11T04:31:38.489Z,8.96
2017-05-11T04:32:19.043Z,9.08
2017-05-11T04:32:59.582Z,8.99
2017-05-11T04:33:40.111Z,9.02
2017-05-11T04:34:20.645Z,9.05
2017-05-11T04:35:01.195Z,9.02
2017-05-11T04:35:41.744Z,9.01
2017-05-11T04:36:22.295Z,9.02
2017-05-11T04:37:02.834Z,9.15
2017-05-11T04:37:43.373Z,9.21
2017-05-11T04:38:23.909Z,9.23
2017-05-11T04:39:04.432Z,9.23
2017-05-11T04:39:44.968Z,9.23
2017-05-11T04:40:25.507Z,9.2
2017-05-11T04:41:06.048Z,9.26
2017-05-11T04:41:46.595Z,9.23
2017-05-11T04:42:27.138Z,9.33
2017-05-11T04:43:07.678Z,9.32
2017-05-11T04:43:48.225Z,9.31
2017-05-11T04:44:28.765Z,9.31
2017-05-11T04:45:09.292Z,9.33
2017-05-11T04:45:49.823Z,9.39
2017-05-11T04:46:30.365Z,9.4
2017-05-11T04:47:10.901Z,9.42
2017-05-11T04:47:51.436Z,9.39
2017-05-11T04:48:31.984Z,9.48
2017-05-11T04:49:12.533Z,9.42
2017-05-11T04:49:53.074Z,9.43
2017-05-11T04:50:33.617Z,9.38
2017-05-11T04:51:14.158Z,9.4
2017-05-11T04:51:54.741Z,9.42
2017-05-11T04:52:35.264Z,9.47
2017-05-11T04:53:15.776Z,9.53
2017-05-11T04:53:56.307Z,9.47
2017-05-11T04:54:36.843Z,9.53
2017-05-11T04:55:17.390Z,9.47
2017-05-11T04:55:57.913Z,9.46
2017-05-11T04:56:38.449Z,9.48
2017-05-11T04:57:18.982Z,9.51
2017-05-11T04:57:59.518Z,9.54
2017-05-11T04:58:40.066Z,9.51
2017-05-11T04:59:20.599Z,9.6
2017-05-11T05:00:01.139Z,9.65
2017-05-11T05:00:41.681Z,9.71
2017-05-11T05:01:22.206Z,9.65
2017-05-11T05:02:02.740Z,9.74
2017-05-11T05:02:43.279Z,9.76
2017-05-11T05:03:23.818Z,9.74
2017-05-11T05:04:04.359Z,9.74
2017-05-11T05:04:44.899Z,9.84
2017-05-11T05:05:25.425Z,9.83
2017-05-11T05:06:05.997Z,9.78
2017-05-11T05:06:46.537Z,9.89
2017-05-11T05:07:27.074Z,9.86
2017-05-11T05:08:07.615Z,9.84
2017-05-11T05:08:48.153Z,9.87
2017-05-11T05:09:28.699Z,9.97
2017-05-11T05:10:09.242Z,9.87
2017-05-11T05:10:49.774Z,9.97
2017-05-11T05:11:30.316Z,9.91
2017-05-11T05:12:10.857Z,9.94
2017-05-11T05:12:51.395Z,9.9
2017-05-11T05:13:31.932Z,9.96
2017-05-11T05:14:12.476Z,9.93
2017-05-11T05:14:53.046Z,10.01
2017-05-11T05:15:33.585Z,9.99
2017-05-11T05:16:14.107Z,10.04
2017-05-11T05:16:54.651Z,10.01
2017-05-11T05:17:35.190Z,10.04
2017-05-11T05:18:15.709Z,10.08
2017-05-11T05:18:56.247Z,10.02
2017-05-11T05:19:36.781Z,10.05
2017-05-11T05:20:17.329Z,10.15
2017-05-11T05:20:57.863Z,10.2
2017-05-11T05:21:38.442Z,10.25
2017-05-11T05:22:18.938Z,10.15
2017-05-11T05:22:59.486Z,10.25
2017-05-11T05:23:40.027Z,10.26
2017-05-11T05:24:20.569Z,10.27
2017-05-11T05:25:01.145Z,10.25
2017-05-11T05:25:41.689Z,10.3
2017-05-11T05:26:22.227Z,10.3
2017-05-11T05:27:02.770Z,10.41
2017-05-11T05:27:43.306Z,10.44
2017-05-11T05:28:23.833Z,10.44
2017-05-11T05:29:04.371Z,10.41
2017-05-11T05:29:44.917Z,10.4
2017-05-11T05:30:25.462Z,10.48
2017-05-11T05:31:05.981Z,10.52
2017-05-11T05:31:46.525Z,10.51
2017-05-11T05:32:27.074Z,10.53
2017-05-11T05:33:07.610Z,10.53
2017-05-11T05:33:48.138Z,10.6
2017-05-11T05:34:28.690Z,10.67
2017-05-11T05:35:09.214Z,10.64
2017-05-11T05:35:49.747Z,10.63
2017-05-11T05:36:30.279Z,10.71
2017-05-11T05:37:10.812Z,10.73
2017-05-11T05:37:51.344Z,10.74
2017-05-11T05:38:31.887Z,10.79
2017-05-11T05:39:12.429Z,10.81
2017-05-11T05:39:52.973Z,10.74
2017-05-11T05:40:33.505Z,10.82
2017-05-11T05:41:14.052Z,10.81
2017-05-11T05:41:54.587Z,10.91
2017-05-11T05:42:35.162Z,10.81
2017-05-11T05:43:15.693Z,10.92
2017-05-11T05:43:56.237Z,10.96
2017-05-11T05:44:36.774Z,10.94
2017-05-11T05:45:17.316Z,10.94
2017-05-11T05:45:57.862Z,10.94
2017-05-11T05:47:56.981Z,11.03
2017-05-11T05:48:37.525Z,10.91
2017-05-11T05:49:18.066Z,11.07
2017-05-11T05:49:58.596Z,11.06
2017-05-11T05:50:39.129Z,11.1
2017-05-11T05:51:19.673Z,11.11
2017-05-11T05:52:00.194Z,11.11
2017-05-11T05:52:40.869Z,11.27
2017-05-11T05:53:21.612Z,11.14
2017-05-11T05:54:02.149Z,11.17
2017-05-11T05:54:42.688Z,11.28
2017-05-11T05:55:23.224Z,11.21
2017-05-11T05:56:03.758Z,11.37
2017-05-11T05:56:44.296Z,11.32
2017-05-11T05:57:24.825Z,11.27
2017-05-11T05:58:05.363Z,11.28
2017-05-11T05:58:45.898Z,11.32
2017-05-11T05:59:26.426Z,11.37
2017-05-11T06:00:06.958Z,11.33
2017-05-11T06:00:47.496Z,11.35
2017-05-11T06:01:28.026Z,11.46
2017-05-11T06:02:08.561Z,11.4
2017-05-11T06:02:49.101Z,11.39
2017-05-11T06:03:29.631Z,11.37
2017-05-11T06:04:10.169Z,11.49
2017-05-11T06:04:50.697Z,11.57
2017-05-11T06:05:31.240Z,11.65
2017-05-11T06:06:11.776Z,11.54
2017-05-11T06:06:52.307Z,11.57
2017-05-11T06:07:32.850Z,11.67
2017-05-11T06:08:13.394Z,11.64
2017-05-11T06:08:53.919Z,11.73
2017-05-11T06:09:34.453Z,11.72
2017-05-11T06:10:14.987Z,11.73
2017-05-11T06:10:55.524Z,11.78
2017-05-11T06:11:36.044Z,11.79
2017-05-11T06:12:16.585Z,11.86
2017-05-11T06:12:57.117Z,11.85
2017-05-11T06:13:37.662Z,11.91
2017-05-11T06:14:18.199Z,12.05
2017-05-11T06:14:58.781Z,12.07
2017-05-11T06:15:39.336Z,12.05
2017-05-11T06:16:19.868Z,12.12
2017-05-11T06:17:00.403Z,12.16
2017-05-11T06:17:41.042Z,12.28
2017-05-11T06:18:21.580Z,12.24
2017-05-11T06:19:02.116Z,12.21
2017-05-11T06:19:42.664Z,12.35
2017-05-11T06:20:23.190Z,12.28
2017-05-11T06:21:03.748Z,12.37
2017-05-11T06:21:44.250Z,12.47
2017-05-11T06:22:24.813Z,12.45
2017-05-11T06:23:05.360Z,12.5
2017-05-11T06:23:45.900Z,12.53
2017-05-11T06:24:26.429Z,12.57
2017-05-11T06:25:06.969Z,12.6
2017-05-11T06:25:47.507Z,12.64
2017-05-11T06:26:28.031Z,12.65
2017-05-11T06:27:08.563Z,12.72
2017-05-11T06:27:49.083Z,12.7
2017-05-11T06:28:29.636Z,12.79
2017-05-11T06:29:10.246Z,12.86
2017-05-11T06:29:50.778Z,12.82
2017-05-11T06:30:31.303Z,12.83
2017-05-11T06:31:11.837Z,12.87
2017-05-11T06:31:52.372Z,12.89
2017-05-11T06:32:32.919Z,12.95
2017-05-11T06:33:13.467Z,13.07
2017-05-11T06:33:54.000Z,13.05
2017-05-11T06:34:34.534Z,13.11
2017-05-11T06:35:15.072Z,13.11
2017-05-11T06:35:55.600Z,13.2
2017-05-11T06:36:36.129Z,13.2
2017-05-11T06:37:16.701Z,13.26
2017-05-11T06:37:57.239Z,13.29
2017-05-11T06:38:37.782Z,13.39
2017-05-11T06:39:18.319Z,13.48
2017-05-11T06:39:58.940Z,13.52
2017-05-11T06:40:39.684Z,13.55
2017-05-11T06:41:20.256Z,13.64
2017-05-11T06:42:00.801Z,13.71
2017-05-11T06:42:41.360Z,13.81
2017-05-11T06:43:21.886Z,13.81
2017-05-11T06:44:02.423Z,13.88
2017-05-11T06:44:42.967Z,13.89
2017-05-11T06:45:23.508Z,13.91
2017-05-11T06:46:04.038Z,13.96
2017-05-11T06:46:44.565Z,14.04
2017-05-11T06:47:25.110Z,13.91
2017-05-11T06:48:05.643Z,13.92
2017-05-11T06:48:46.181Z,13.96
2017-05-11T06:49:26.734Z,13.97
2017-05-11T06:50:07.253Z,13.92
2017-05-11T06:50:47.789Z,13.77
2017-05-11T06:51:28.319Z,13.79
2017-05-11T06:52:08.849Z,13.87
2017-05-11T06:52:49.394Z,13.92
2017-05-11T06:53:29.929Z,13.89
2017-05-11T06:54:10.462Z,13.81
2017-05-11T06:54:50.998Z,13.88
2017-05-11T06:55:31.554Z,13.84
2017-05-11T06:56:12.115Z,13.88
2017-05-11T06:56:52.641Z,13.88
2017-05-11T06:57:33.165Z,13.92
2017-05-11T06:58:13.702Z,13.92
2017-05-11T06:58:54.216Z,13.89
2017-05-11T06:59:34.756Z,13.88
2017-05-11T07:00:15.296Z,13.89
2017-05-11T07:00:55.824Z,13.97
2017-05-11T07:01:36.353Z,13.97
2017-05-11T07:02:16.890Z,13.99
2017-05-11T07:02:57.433Z,14.02
2017-05-11T07:03:37.985Z,13.97
2017-05-11T07:04:18.546Z,13.99
2017-05-11T07:04:59.079Z,13.97
2017-05-11T07:05:39.621Z,14.04
2017-05-11T07:06:20.147Z,14.03
2017-05-11T07:07:00.674Z,14.02
2017-05-11T07:07:41.209Z,14
2017-05-11T07:08:21.757Z,14.07
2017-05-11T07:09:02.299Z,14.12
2017-05-11T07:09:42.826Z,14.15
2017-05-11T07:10:23.363Z,14.15
2017-05-11T07:11:03.900Z,14.22
2017-05-11T07:11:44.434Z,14.2
2017-05-11T07:12:24.965Z,14.22
2017-05-11T07:13:05.502Z,14.17
2017-05-11T07:13:46.042Z,14.2
2017-05-11T07:14:26.573Z,14.2
2017-05-11T07:15:07.136Z,14.21
2017-05-11T07:15:47.668Z,14.18
2017-05-11T07:16:28.211Z,14.21
2017-05-11T07:17:08.751Z,14.24
2017-05-11T07:17:49.285Z,14.24
2017-05-11T07:18:29.823Z,14.25
2017-05-11T07:19:10.365Z,14.24
2017-05-11T07:19:50.900Z,14.22
2017-05-11T07:20:31.433Z,14.25
2017-05-11T07:21:11.975Z,14.21
2017-05-11T07:21:52.518Z,14.27
2017-05-11T07:22:33.037Z,14.27
2017-05-11T07:23:13.571Z,14.25
2017-05-11T07:23:54.106Z,14.21
2017-05-11T07:24:34.649Z,14.21
2017-05-11T07:25:15.184Z,14.22
2017-05-11T07:25:55.717Z,14.24
2017-05-11T07:26:36.257Z,14.2
2017-05-11T07:27:16.782Z,14.25
2017-05-11T07:27:57.312Z,14.22
2017-05-11T07:28:37.853Z,14.24
2017-05-11T07:29:18.386Z,14.22
2017-05-11T07:29:58.929Z,14.21
2017-05-11T07:30:39.472Z,14.22
2017-05-11T07:31:20.033Z,14.22
2017-05-11T07:32:00.566Z,14.28
2017-05-11T07:32:41.107Z,14.32
2017-05-11T07:33:21.638Z,14.32
2017-05-11T07:34:02.178Z,14.33
2017-05-11T07:34:42.716Z,14.37
2017-05-11T07:35:23.261Z,14.37
2017-05-11T07:36:03.809Z,14.42
2017-05-11T07:36:44.344Z,14.42
2017-05-11T07:37:24.874Z,14.42
2017-05-11T07:38:05.410Z,14.45
2017-05-11T07:38:45.946Z,14.55
2017-05-11T07:39:26.482Z,14.6
2017-05-11T07:40:07.036Z,14.55
2017-05-11T07:40:47.576Z,14.61
2017-05-11T07:41:28.105Z,14.61
2017-05-11T07:42:08.619Z,14.69
2017-05-11T07:42:49.153Z,14.69
2017-05-11T07:43:29.684Z,14.78
2017-05-11T07:44:10.218Z,14.75
2017-05-11T07:44:50.743Z,14.84
2017-05-11T07:45:31.291Z,14.99
2017-05-11T07:46:11.824Z,14.99
2017-05-11T07:46:52.356Z,15.1
2017-05-11T07:47:32.902Z,15.1
2017-05-11T07:48:13.427Z,15.2
2017-05-11T07:48:53.969Z,15.34
2017-05-11T07:49:34.506Z,15.41
2017-05-11T07:50:15.047Z,15.57
2017-05-11T07:50:55.592Z,15.75
2017-05-11T07:51:36.133Z,15.82
2017-05-11T07:52:16.665Z,15.9
2017-05-11T07:52:57.198Z,15.92
2017-05-11T07:53:37.744Z,16.01
2017-05-11T07:54:18.276Z,16
2017-05-11T07:54:58.820Z,16.05
2017-05-11T07:55:39.359Z,16.01
2017-05-11T07:56:19.902Z,16.08
2017-05-11T07:57:00.441Z,16.12
2017-05-11T07:57:40.977Z,16.07
2017-05-11T07:58:21.525Z,16.14
2017-05-11T07:59:02.062Z,16.2
2017-05-11T07:59:42.600Z,16.3
2017-05-11T08:00:23.142Z,16.24
2017-05-11T08:01:03.691Z,16.3
2017-05-11T08:01:44.234Z,16.39
2017-05-11T08:02:24.770Z,16.43
2017-05-11T08:03:05.311Z,16.57
2017-05-11T08:03:45.854Z,16.48
2017-05-11T08:04:26.384Z,16.57
2017-05-11T08:05:06.913Z,16.67
2017-05-11T08:05:47.447Z,16.63
2017-05-11T08:06:27.971Z,16.78
2017-05-11T08:07:08.512Z,16.83
2017-05-11T08:07:49.047Z,16.88
2017-05-11T08:08:29.588Z,16.83
2017-05-11T08:09:10.128Z,16.85
2017-05-11T08:09:50.660Z,16.97
2017-05-11T08:10:31.200Z,16.94
2017-05-11T08:11:11.739Z,17.08
2017-05-11T08:11:52.280Z,17.04
2017-05-11T08:12:32.819Z,17.15
2017-05-11T08:13:13.378Z,17.16
2017-05-11T08:13:53.900Z,17.3
2017-05-11T08:14:34.457Z,17.3
2017-05-11T08:15:15.001Z,17.38
2017-05-11T08:15:55.534Z,17.4
2017-05-11T08:16:36.066Z,17.51
2017-05-11T08:17:16.607Z,17.54
2017-05-11T08:17:57.143Z,17.71
2017-05-11T08:18:37.687Z,17.78
2017-05-11T08:19:18.219Z,17.81
2017-05-11T08:19:58.737Z,17.93
2017-05-11T08:20:39.266Z,17.97
2017-05-11T08:21:19.801Z,18.08
2017-05-11T08:22:00.341Z,18.17
2017-05-11T08:22:40.882Z,18.18
2017-05-11T08:23:21.425Z,18.3
2017-05-11T08:24:01.952Z,18.27
2017-05-11T08:24:42.490Z,18.35
2017-05-11T08:25:23.025Z,18.37
2017-05-11T08:26:03.571Z,18.35
2017-05-11T08:26:44.107Z,18.32
2017-05-11T08:27:24.653Z,18.36
2017-05-11T08:28:05.191Z,18.32
2017-05-11T08:28:45.734Z,18.39
2017-05-11T08:29:26.284Z,18.33
2017-05-11T08:30:06.816Z,18.37
2017-05-11T08:30:47.358Z,18.27
2017-05-11T08:31:27.899Z,18.25
2017-05-11T08:32:08.441Z,18.27
2017-05-11T08:32:48.981Z,18.25
2017-05-11T08:33:29.523Z,18.33
2017-05-11T08:34:10.061Z,18.25
2017-05-11T08:34:50.595Z,18.35
2017-05-11T08:35:31.128Z,18.35
2017-05-11T08:36:11.671Z,18.39
2017-05-11T08:36:52.212Z,18.47
2017-05-11T08:37:32.750Z,18.5
2017-05-11T08:38:13.294Z,18.47
2017-05-11T08:38:53.833Z,18.52
2017-05-11T08:39:34.376Z,18.5
2017-05-11T08:40:14.920Z,18.51
2017-05-11T08:40:55.464Z,18.6
2017-05-11T08:41:36.004Z,18.65
2017-05-11T08:42:16.555Z,18.72
2017-05-11T08:42:57.108Z,18.8
2017-05-11T08:43:37.658Z,18.84
2017-05-11T08:44:18.202Z,19
2017-05-11T08:44:58.751Z,19.16
2017-05-11T08:45:39.302Z,19.28
2017-05-11T08:46:19.841Z,19.32
2017-05-11T08:47:00.371Z,19.4
2017-05-11T08:47:40.910Z,19.56
2017-05-11T08:48:21.448Z,19.62
2017-05-11T08:49:01.988Z,19.74
2017-05-11T08:49:42.537Z,19.74
2017-05-11T08:50:23.098Z,19.87
2017-05-11T08:51:03.639Z,19.96
2017-05-11T08:51:44.184Z,20.17
2017-05-11T08:52:24.716Z,20.28
2017-05-11T08:53:05.305Z,20.29
2017-05-11T08:53:45.815Z,20.51
2017-05-11T08:54:26.368Z,20.66
2017-05-11T08:55:06.910Z,20.7